sensor_id;sensor_type;location;lat;lon;timestamp;temperature;humidity
7934;DHT22;4012;48.896;9.192;2023-03-23T00:00:16;14.40;99.90
7934;DHT22;4012;48.896;9.192;2023-03-23T00:02:42;14.50;99.90
7934;DHT22;4012;48.896;9.192;2023-03-23T00:05:09;14.50;99.90
7934;DHT22;4012;48.896;9.192;2023-03-23T00:07:35;14.50;99.90
7934;DHT22;4012;48.896;9.192;2023-03-23T00:10:01;14.50;99.90
7934;DHT22;4012;48.896;9.192;2023-03-23T00:12:30;14.50;99.90
7934;DHT22;4012;48.896;9.192;2023-03-23T00:15:00;14.50;99.90
7934;DHT22;4012;48.896;9.192;2023-03-23T00:17:29;14.60;99.90
7934;DHT22;4012;48.896;9.192;2023-03-23T00:19:55;14.60;99.90
7934;DHT22;4012;48.896;9.192;2023-03-23T00:22:21;14.60;99.90
7934;DHT22;4012;48.896;9.192;2023-03-23T00:24:50;14.60;99.90
7934;DHT22;4012;48.896;9.192;2023-03-23T00:27:17;14.70;99.90
7934;DHT22;4012;48.896;9.192;2023-03-23T00:29:43;14.60;99.90
7934;DHT22;4012;48.896;9.192;2023-03-23T00:32:11;14.60;99.90
7934;DHT22;4012;48.896;9.192;2023-03-23T00:34:38;14.60;99.90
7934;DHT22;4012;48.896;9.192;2023-03-23T00:37:05;14.60;99.90
7934;DHT22;4012;48.896;9.192;2023-03-23T00:39:31;14.60;99.90
7934;DHT22;4012;48.896;9.192;2023-03-23T00:41:56;14.60;99.90
7934;DHT22;4012;48.896;9.192;2023-03-23T00:44:27;14.60;99.90
7934;DHT22;4012;48.896;9.192;2023-03-23T00:46:54;14.60;99.90
7934;DHT22;4012;48.896;9.192;2023-03-23T00:49:23;14.60;99.90
7934;DHT22;4012;48.896;9.192;2023-03-23T00:51:51;14.60;99.90
7934;DHT22;4012;48.896;9.192;2023-03-23T00:54:16;14.70;99.90
7934;DHT22;4012;48.896;9.192;2023-03-23T00:56:42;14.60;99.90
7934;DHT22;4012;48.896;9.192;2023-03-23T00:59:08;14.60;99.90
7934;DHT22;4012;48.896;9.192;2023-03-23T01:01:34;14.60;99.90
7934;DHT22;4012;48.896;9.192;2023-03-23T01:04:00;14.70;99.90
7934;DHT22;4012;48.896;9.192;2023-03-23T01:06:27;14.60;99.90
7934;DHT22;4012;48.896;9.192;2023-03-23T01:08:56;14.70;99.90
7934;DHT22;4012;48.896;9.192;2023-03-23T01:11:22;14.70;99.90
7934;DHT22;4012;48.896;9.192;2023-03-23T01:13:48;14.60;99.90
7934;DHT22;4012;48.896;9.192;2023-03-23T01:16:14;14.70;99.90
7934;DHT22;4012;48.896;9.192;2023-03-23T01:18:40;14.70;99.90
7934;DHT22;4012;48.896;9.192;2023-03-23T01:21:08;14.70;99.90
7934;DHT22;4012;48.896;9.192;2023-03-23T01:23:36;14.80;99.90
7934;DHT22;4012;48.896;9.192;2023-03-23T01:26:04;14.80;99.90
7934;DHT22;4012;48.896;9.192;2023-03-23T01:28:30;14.80;99.90
7934;DHT22;4012;48.896;9.192;2023-03-23T01:31:00;14.70;99.90
7934;DHT22;4012;48.896;9.192;2023-03-23T01:33:28;14.80;99.90
7934;DHT22;4012;48.896;9.192;2023-03-23T01:35:54;14.80;99.90
7934;DHT22;4012;48.896;9.192;2023-03-23T01:38:19;14.80;99.90
7934;DHT22;4012;48.896;9.192;2023-03-23T01:40:45;14.70;99.90
7934;DHT22;4012;48.896;9.192;2023-03-23T01:43:13;14.70;99.90
7934;DHT22;4012;48.896;9.192;2023-03-23T01:45:40;14.70;99.90
7934;DHT22;4012;48.896;9.192;2023-03-23T01:51:02;14.70;99.90
7934;DHT22;4012;48.896;9.192;2023-03-23T01:53:32;14.70;99.90
7934;DHT22;4012;48.896;9.192;2023-03-23T01:55:59;14.70;99.90
7934;DHT22;4012;48.896;9.192;2023-03-23T01:58:28;14.70;99.90
7934;DHT22;4012;48.896;9.192;2023-03-23T02:00:56;14.70;99.90
7934;DHT22;4012;48.896;9.192;2023-03-23T02:03:24;14.60;99.90
7934;DHT22;4012;48.896;9.192;2023-03-23T02:05:51;14.60;99.90
7934;DHT22;4012;48.896;9.192;2023-03-23T02:08:18;14.60;99.90
7934;DHT22;4012;48.896;9.192;2023-03-23T02:10:44;14.60;99.90
7934;DHT22;4012;48.896;9.192;2023-03-23T02:13:11;14.60;99.90
7934;DHT22;4012;48.896;9.192;2023-03-23T02:15:43;14.60;99.90
7934;DHT22;4012;48.896;9.192;2023-03-23T02:18:16;14.40;99.90
7934;DHT22;4012;48.896;9.192;2023-03-23T02:23:45;14.20;99.90
7934;DHT22;4012;48.896;9.192;2023-03-23T02:26:42;14.20;99.90
7934;DHT22;4012;48.896;9.192;2023-03-23T02:34:49;14.10;99.90
7934;DHT22;4012;48.896;9.192;2023-03-23T02:37:41;14.10;99.90
7934;DHT22;4012;48.896;9.192;2023-03-23T02:40:20;14.10;99.90
7934;DHT22;4012;48.896;9.192;2023-03-23T02:42:50;14.10;99.90
7934;DHT22;4012;48.896;9.192;2023-03-23T02:45:18;14.00;99.90
7934;DHT22;4012;48.896;9.192;2023-03-23T02:47:46;14.00;99.90
7934;DHT22;4012;48.896;9.192;2023-03-23T02:50:14;13.90;99.90
7934;DHT22;4012;48.896;9.192;2023-03-23T02:52:43;13.90;99.90
7934;DHT22;4012;48.896;9.192;2023-03-23T02:55:10;13.90;99.90
7934;DHT22;4012;48.896;9.192;2023-03-23T02:57:37;13.90;99.90
7934;DHT22;4012;48.896;9.192;2023-03-23T03:00:05;13.90;99.90
7934;DHT22;4012;48.896;9.192;2023-03-23T03:02:36;13.90;99.90
7934;DHT22;4012;48.896;9.192;2023-03-23T03:13:08;14.00;99.90
7934;DHT22;4012;48.896;9.192;2023-03-23T03:15:50;14.00;99.90
7934;DHT22;4012;48.896;9.192;2023-03-23T03:18:32;13.90;99.90
7934;DHT22;4012;48.896;9.192;2023-03-23T03:21:04;13.90;99.90
7934;DHT22;4012;48.896;9.192;2023-03-23T03:23:33;14.00;99.90
7934;DHT22;4012;48.896;9.192;2023-03-23T03:26:01;13.90;99.90
7934;DHT22;4012;48.896;9.192;2023-03-23T03:28:31;13.90;99.90
7934;DHT22;4012;48.896;9.192;2023-03-23T03:31:00;13.90;99.90
7934;DHT22;4012;48.896;9.192;2023-03-23T03:33:29;13.90;99.90
7934;DHT22;4012;48.896;9.192;2023-03-23T03:35:57;13.90;99.90
7934;DHT22;4012;48.896;9.192;2023-03-23T03:38:24;13.80;99.90
7934;DHT22;4012;48.896;9.192;2023-03-23T03:40:51;13.80;99.90
7934;DHT22;4012;48.896;9.192;2023-03-23T03:43:16;13.80;99.90
7934;DHT22;4012;48.896;9.192;2023-03-23T03:45:42;13.80;99.90
7934;DHT22;4012;48.896;9.192;2023-03-23T03:48:08;13.70;99.90
7934;DHT22;4012;48.896;9.192;2023-03-23T03:50:34;13.70;99.90
7934;DHT22;4012;48.896;9.192;2023-03-23T03:53:00;13.70;99.90
7934;DHT22;4012;48.896;9.192;2023-03-23T03:55:25;13.70;99.90
7934;DHT22;4012;48.896;9.192;2023-03-23T03:57:54;13.80;99.90
7934;DHT22;4012;48.896;9.192;2023-03-23T04:00:20;13.90;99.90
7934;DHT22;4012;48.896;9.192;2023-03-23T04:02:47;13.80;99.90
7934;DHT22;4012;48.896;9.192;2023-03-23T04:05:16;13.90;99.90
7934;DHT22;4012;48.896;9.192;2023-03-23T04:07:42;13.90;99.90
7934;DHT22;4012;48.896;9.192;2023-03-23T04:10:10;13.90;99.90
7934;DHT22;4012;48.896;9.192;2023-03-23T04:12:37;13.90;99.90
7934;DHT22;4012;48.896;9.192;2023-03-23T04:15:03;13.90;99.90
7934;DHT22;4012;48.896;9.192;2023-03-23T04:17:29;13.80;99.90
7934;DHT22;4012;48.896;9.192;2023-03-23T04:19:55;13.80;99.90
7934;DHT22;4012;48.896;9.192;2023-03-23T04:22:26;13.80;99.90
7934;DHT22;4012;48.896;9.192;2023-03-23T04:24:59;13.90;99.90
7934;DHT22;4012;48.896;9.192;2023-03-23T04:27:26;14.10;99.90
7934;DHT22;4012;48.896;9.192;2023-03-23T04:29:56;14.10;99.90
7934;DHT22;4012;48.896;9.192;2023-03-23T04:32:27;14.20;99.90
7934;DHT22;4012;48.896;9.192;2023-03-23T04:34:55;14.20;99.90
7934;DHT22;4012;48.896;9.192;2023-03-23T04:37:21;14.30;99.90
7934;DHT22;4012;48.896;9.192;2023-03-23T04:39:54;14.40;99.90
7934;DHT22;4012;48.896;9.192;2023-03-23T04:42:29;14.40;99.90
7934;DHT22;4012;48.896;9.192;2023-03-23T04:44:58;14.40;99.90
7934;DHT22;4012;48.896;9.192;2023-03-23T04:47:25;14.50;99.90
7934;DHT22;4012;48.896;9.192;2023-03-23T04:49:56;14.50;99.90
7934;DHT22;4012;48.896;9.192;2023-03-23T04:52:24;14.50;99.90
7934;DHT22;4012;48.896;9.192;2023-03-23T04:54:50;14.50;99.90
7934;DHT22;4012;48.896;9.192;2023-03-23T04:57:16;14.40;99.90
7934;DHT22;4012;48.896;9.192;2023-03-23T04:59:42;14.50;99.90
7934;DHT22;4012;48.896;9.192;2023-03-23T05:02:10;14.40;99.90
7934;DHT22;4012;48.896;9.192;2023-03-23T05:04:36;14.40;99.90
7934;DHT22;4012;48.896;9.192;2023-03-23T05:07:03;14.40;99.90
7934;DHT22;4012;48.896;9.192;2023-03-23T05:09:29;14.40;99.90
7934;DHT22;4012;48.896;9.192;2023-03-23T05:11:54;14.40;99.90
7934;DHT22;4012;48.896;9.192;2023-03-23T05:14:20;14.40;99.90
7934;DHT22;4012;48.896;9.192;2023-03-23T05:16:46;14.40;99.90
7934;DHT22;4012;48.896;9.192;2023-03-23T05:19:14;14.40;99.90
7934;DHT22;4012;48.896;9.192;2023-03-23T05:21:40;14.40;99.90
7934;DHT22;4012;48.896;9.192;2023-03-23T05:24:06;14.30;99.90
7934;DHT22;4012;48.896;9.192;2023-03-23T05:26:31;14.20;99.90
7934;DHT22;4012;48.896;9.192;2023-03-23T05:28:58;14.20;99.90
7934;DHT22;4012;48.896;9.192;2023-03-23T05:31:24;14.20;99.90
7934;DHT22;4012;48.896;9.192;2023-03-23T05:33:51;14.30;99.90
7934;DHT22;4012;48.896;9.192;2023-03-23T05:36:17;14.30;99.90
7934;DHT22;4012;48.896;9.192;2023-03-23T05:38:42;14.20;99.90
7934;DHT22;4012;48.896;9.192;2023-03-23T05:41:11;14.20;99.90
7934;DHT22;4012;48.896;9.192;2023-03-23T05:43:37;14.10;99.90
7934;DHT22;4012;48.896;9.192;2023-03-23T05:46:03;14.10;99.90
7934;DHT22;4012;48.896;9.192;2023-03-23T05:48:29;14.10;99.90
7934;DHT22;4012;48.896;9.192;2023-03-23T05:50:54;14.20;99.90
7934;DHT22;4012;48.896;9.192;2023-03-23T05:53:20;14.30;99.90
7934;DHT22;4012;48.896;9.192;2023-03-23T05:55:46;14.40;99.90
7934;DHT22;4012;48.896;9.192;2023-03-23T05:58:12;14.50;99.90
7934;DHT22;4012;48.896;9.192;2023-03-23T06:00:37;14.50;99.90
7934;DHT22;4012;48.896;9.192;2023-03-23T06:03:04;14.60;99.90
7934;DHT22;4012;48.896;9.192;2023-03-23T06:05:30;14.70;99.90
7934;DHT22;4012;48.896;9.192;2023-03-23T06:07:55;14.80;99.90
7934;DHT22;4012;48.896;9.192;2023-03-23T06:10:21;14.80;99.90
7934;DHT22;4012;48.896;9.192;2023-03-23T06:12:49;14.90;99.90
7934;DHT22;4012;48.896;9.192;2023-03-23T06:15:15;14.80;99.90
7934;DHT22;4012;48.896;9.192;2023-03-23T06:17:41;14.90;99.90
7934;DHT22;4012;48.896;9.192;2023-03-23T06:20:08;14.90;99.90
7934;DHT22;4012;48.896;9.192;2023-03-23T06:22:39;14.90;99.90
7934;DHT22;4012;48.896;9.192;2023-03-23T06:25:09;14.90;99.90
7934;DHT22;4012;48.896;9.192;2023-03-23T06:27:35;14.90;99.90
7934;DHT22;4012;48.896;9.192;2023-03-23T06:30:01;14.90;99.90
7934;DHT22;4012;48.896;9.192;2023-03-23T06:32:30;14.90;99.90
7934;DHT22;4012;48.896;9.192;2023-03-23T06:34:56;14.80;99.90
7934;DHT22;4012;48.896;9.192;2023-03-23T06:37:22;14.80;99.90
7934;DHT22;4012;48.896;9.192;2023-03-23T06:39:49;14.80;99.90
7934;DHT22;4012;48.896;9.192;2023-03-23T06:42:15;14.80;99.90
7934;DHT22;4012;48.896;9.192;2023-03-23T06:44:40;14.80;99.90
7934;DHT22;4012;48.896;9.192;2023-03-23T06:47:06;14.80;99.90
7934;DHT22;4012;48.896;9.192;2023-03-23T06:49:33;14.80;99.90
7934;DHT22;4012;48.896;9.192;2023-03-23T06:51:59;14.80;99.90
7934;DHT22;4012;48.896;9.192;2023-03-23T06:54:27;14.90;99.90
7934;DHT22;4012;48.896;9.192;2023-03-23T06:56:53;15.00;99.90
7934;DHT22;4012;48.896;9.192;2023-03-23T06:59:18;15.20;99.90
7934;DHT22;4012;48.896;9.192;2023-03-23T07:01:44;15.30;99.90
7934;DHT22;4012;48.896;9.192;2023-03-23T07:04:12;15.40;99.90
7934;DHT22;4012;48.896;9.192;2023-03-23T07:06:38;15.50;99.90
7934;DHT22;4012;48.896;9.192;2023-03-23T07:09:04;15.50;99.90
7934;DHT22;4012;48.896;9.192;2023-03-23T07:11:29;15.40;99.90
7934;DHT22;4012;48.896;9.192;2023-03-23T07:13:56;15.40;99.90
7934;DHT22;4012;48.896;9.192;2023-03-23T07:16:22;15.30;99.90
7934;DHT22;4012;48.896;9.192;2023-03-23T07:18:48;15.30;99.90
7934;DHT22;4012;48.896;9.192;2023-03-23T07:21:13;15.20;99.90
7934;DHT22;4012;48.896;9.192;2023-03-23T07:23:39;15.20;99.90
7934;DHT22;4012;48.896;9.192;2023-03-23T07:26:05;15.10;99.90
7934;DHT22;4012;48.896;9.192;2023-03-23T07:28:32;15.10;99.90
7934;DHT22;4012;48.896;9.192;2023-03-23T07:30:57;15.10;99.90
7934;DHT22;4012;48.896;9.192;2023-03-23T07:33:23;15.10;99.90
7934;DHT22;4012;48.896;9.192;2023-03-23T07:35:48;15.10;99.90
7934;DHT22;4012;48.896;9.192;2023-03-23T07:38:14;15.10;99.90
7934;DHT22;4012;48.896;9.192;2023-03-23T07:40:40;15.20;99.90
7934;DHT22;4012;48.896;9.192;2023-03-23T07:43:06;15.20;99.90
7934;DHT22;4012;48.896;9.192;2023-03-23T07:45:32;15.30;99.90
7934;DHT22;4012;48.896;9.192;2023-03-23T07:47:59;15.30;99.90
7934;DHT22;4012;48.896;9.192;2023-03-23T07:50:25;15.40;99.90
7934;DHT22;4012;48.896;9.192;2023-03-23T07:52:54;15.40;99.90
7934;DHT22;4012;48.896;9.192;2023-03-23T07:55:19;15.70;99.90
7934;DHT22;4012;48.896;9.192;2023-03-23T07:57:47;16.10;99.90
7934;DHT22;4012;48.896;9.192;2023-03-23T08:00:15;16.40;99.90
7934;DHT22;4012;48.896;9.192;2023-03-23T08:02:44;16.50;99.90
7934;DHT22;4012;48.896;9.192;2023-03-23T08:05:09;16.50;99.90
7934;DHT22;4012;48.896;9.192;2023-03-23T08:07:35;16.10;99.90
7934;DHT22;4012;48.896;9.192;2023-03-23T08:10:03;16.10;99.90
7934;DHT22;4012;48.896;9.192;2023-03-23T08:12:29;16.10;99.90
7934;DHT22;4012;48.896;9.192;2023-03-23T08:14:54;15.80;99.90
7934;DHT22;4012;48.896;9.192;2023-03-23T08:17:20;15.70;99.90
7934;DHT22;4012;48.896;9.192;2023-03-23T08:19:46;15.80;99.90
7934;DHT22;4012;48.896;9.192;2023-03-23T08:22:12;15.80;99.90
7934;DHT22;4012;48.896;9.192;2023-03-23T08:24:38;15.70;99.90
7934;DHT22;4012;48.896;9.192;2023-03-23T08:27:04;15.90;99.90
7934;DHT22;4012;48.896;9.192;2023-03-23T08:29:29;16.00;99.90
7934;DHT22;4012;48.896;9.192;2023-03-23T08:31:57;15.90;99.90
7934;DHT22;4012;48.896;9.192;2023-03-23T08:34:23;15.80;99.90
7934;DHT22;4012;48.896;9.192;2023-03-23T08:36:48;15.80;99.90
7934;DHT22;4012;48.896;9.192;2023-03-23T08:39:17;16.00;99.90
7934;DHT22;4012;48.896;9.192;2023-03-23T08:41:44;16.10;99.90
7934;DHT22;4012;48.896;9.192;2023-03-23T08:44:10;16.10;99.90
7934;DHT22;4012;48.896;9.192;2023-03-23T08:46:35;16.00;99.90
7934;DHT22;4012;48.896;9.192;2023-03-23T08:49:01;16.10;99.90
7934;DHT22;4012;48.896;9.192;2023-03-23T08:51:27;15.90;99.90
7934;DHT22;4012;48.896;9.192;2023-03-23T08:53:53;15.80;99.90
7934;DHT22;4012;48.896;9.192;2023-03-23T08:56:19;15.70;99.90
7934;DHT22;4012;48.896;9.192;2023-03-23T08:58:45;15.70;99.90
7934;DHT22;4012;48.896;9.192;2023-03-23T09:01:11;15.70;99.90
7934;DHT22;4012;48.896;9.192;2023-03-23T09:03:36;15.80;99.90
7934;DHT22;4012;48.896;9.192;2023-03-23T09:06:04;15.80;99.90
7934;DHT22;4012;48.896;9.192;2023-03-23T09:08:31;15.70;99.90
7934;DHT22;4012;48.896;9.192;2023-03-23T09:11:02;15.60;99.90
7934;DHT22;4012;48.896;9.192;2023-03-23T09:13:28;15.70;99.90
7934;DHT22;4012;48.896;9.192;2023-03-23T09:15:54;15.80;99.90
7934;DHT22;4012;48.896;9.192;2023-03-23T09:18:20;15.80;99.90
7934;DHT22;4012;48.896;9.192;2023-03-23T09:20:49;15.80;99.90
7934;DHT22;4012;48.896;9.192;2023-03-23T09:23:15;15.90;99.90
7934;DHT22;4012;48.896;9.192;2023-03-23T09:25:41;15.80;99.90
7934;DHT22;4012;48.896;9.192;2023-03-23T09:28:07;15.80;99.90
7934;DHT22;4012;48.896;9.192;2023-03-23T09:30:34;15.90;99.90
7934;DHT22;4012;48.896;9.192;2023-03-23T09:33:03;16.00;99.90
7934;DHT22;4012;48.896;9.192;2023-03-23T09:35:30;15.90;99.90
7934;DHT22;4012;48.896;9.192;2023-03-23T09:37:57;15.90;99.90
7934;DHT22;4012;48.896;9.192;2023-03-23T09:45:41;15.80;99.90
7934;DHT22;4012;48.896;9.192;2023-03-23T09:51:01;15.90;99.90
7934;DHT22;4012;48.896;9.192;2023-03-23T09:53:33;15.90;99.90
7934;DHT22;4012;48.896;9.192;2023-03-23T09:56:08;16.10;99.90
7934;DHT22;4012;48.896;9.192;2023-03-23T10:01:53;16.00;99.90
7934;DHT22;4012;48.896;9.192;2023-03-23T10:04:48;16.10;99.90
7934;DHT22;4012;48.896;9.192;2023-03-23T10:07:21;16.20;99.90
7934;DHT22;4012;48.896;9.192;2023-03-23T10:10:02;16.30;99.90
7934;DHT22;4012;48.896;9.192;2023-03-23T10:12:38;16.40;99.90
7934;DHT22;4012;48.896;9.192;2023-03-23T10:15:19;16.30;99.90
7934;DHT22;4012;48.896;9.192;2023-03-23T10:17:51;16.30;99.90
7934;DHT22;4012;48.896;9.192;2023-03-23T10:21:13;16.40;99.90
7934;DHT22;4012;48.896;9.192;2023-03-23T10:25:52;16.40;99.90
7934;DHT22;4012;48.896;9.192;2023-03-23T10:28:34;16.50;99.90
7934;DHT22;4012;48.896;9.192;2023-03-23T10:31:00;16.50;99.90
7934;DHT22;4012;48.896;9.192;2023-03-23T10:33:32;16.70;99.90
7934;DHT22;4012;48.896;9.192;2023-03-23T10:41:33;16.90;99.90
7934;DHT22;4012;48.896;9.192;2023-03-23T10:43:59;16.70;99.90
7934;DHT22;4012;48.896;9.192;2023-03-23T10:46:41;16.60;99.90
7934;DHT22;4012;48.896;9.192;2023-03-23T10:49:19;16.70;99.90
7934;DHT22;4012;48.896;9.192;2023-03-23T10:52:03;16.40;99.90
7934;DHT22;4012;48.896;9.192;2023-03-23T10:54:37;16.50;99.90
7934;DHT22;4012;48.896;9.192;2023-03-23T10:57:29;16.40;99.90
7934;DHT22;4012;48.896;9.192;2023-03-23T11:00:19;16.60;99.90
7934;DHT22;4012;48.896;9.192;2023-03-23T11:05:36;17.20;99.90
7934;DHT22;4012;48.896;9.192;2023-03-23T11:08:04;16.90;99.90
7934;DHT22;4012;48.896;9.192;2023-03-23T11:10:53;17.00;99.90
7934;DHT22;4012;48.896;9.192;2023-03-23T11:13:21;17.20;99.90
7934;DHT22;4012;48.896;9.192;2023-03-23T11:15:48;17.20;99.90
7934;DHT22;4012;48.896;9.192;2023-03-23T11:18:54;17.40;99.90
7934;DHT22;4012;48.896;9.192;2023-03-23T11:21:13;17.10;99.90
7934;DHT22;4012;48.896;9.192;2023-03-23T11:23:42;17.00;99.90
7934;DHT22;4012;48.896;9.192;2023-03-23T11:26:15;17.00;99.90
7934;DHT22;4012;48.896;9.192;2023-03-23T11:28:55;16.90;99.90
7934;DHT22;4012;48.896;9.192;2023-03-23T11:31:23;16.90;99.90
7934;DHT22;4012;48.896;9.192;2023-03-23T11:33:56;17.00;99.90
7934;DHT22;4012;48.896;9.192;2023-03-23T11:36:36;17.00;99.90
7934;DHT22;4012;48.896;9.192;2023-03-23T11:39:53;17.20;99.90
7934;DHT22;4012;48.896;9.192;2023-03-23T11:41:49;17.70;99.90
7934;DHT22;4012;48.896;9.192;2023-03-23T11:44:15;17.90;99.90
7934;DHT22;4012;48.896;9.192;2023-03-23T11:47:13;17.80;99.90
7934;DHT22;4012;48.896;9.192;2023-03-23T11:50:08;18.10;99.90
7934;DHT22;4012;48.896;9.192;2023-03-23T11:55:55;18.00;99.90
7934;DHT22;4012;48.896;9.192;2023-03-23T11:58:19;17.90;99.90
7934;DHT22;4012;48.896;9.192;2023-03-23T12:00:56;17.70;99.90
7934;DHT22;4012;48.896;9.192;2023-03-23T12:12:05;17.00;99.90
7934;DHT22;4012;48.896;9.192;2023-03-23T12:17:30;16.60;99.90
7934;DHT22;4012;48.896;9.192;2023-03-23T12:31:15;16.40;99.90
7934;DHT22;4012;48.896;9.192;2023-03-23T12:39:37;16.90;99.90
7934;DHT22;4012;48.896;9.192;2023-03-23T12:42:41;17.30;99.90
7934;DHT22;4012;48.896;9.192;2023-03-23T12:45:18;17.40;99.90
7934;DHT22;4012;48.896;9.192;2023-03-23T12:50:26;17.10;99.90
7934;DHT22;4012;48.896;9.192;2023-03-23T12:55:42;17.00;99.90
7934;DHT22;4012;48.896;9.192;2023-03-23T12:58:17;17.30;99.90
7934;DHT22;4012;48.896;9.192;2023-03-23T13:00:57;17.20;99.90
7934;DHT22;4012;48.896;9.192;2023-03-23T13:03:44;17.50;99.90
7934;DHT22;4012;48.896;9.192;2023-03-23T13:11:46;17.80;99.90
7934;DHT22;4012;48.896;9.192;2023-03-23T13:23:09;18.30;99.90
7934;DHT22;4012;48.896;9.192;2023-03-23T13:25:55;18.40;99.90
7934;DHT22;4012;48.896;9.192;2023-03-23T13:28:27;18.60;99.90
7934;DHT22;4012;48.896;9.192;2023-03-23T13:31:11;18.20;99.90
7934;DHT22;4012;48.896;9.192;2023-03-23T13:33:38;17.90;99.90
7934;DHT22;4012;48.896;9.192;2023-03-23T13:36:14;17.90;99.90
7934;DHT22;4012;48.896;9.192;2023-03-23T13:38:50;17.90;99.90
7934;DHT22;4012;48.896;9.192;2023-03-23T13:41:18;18.10;99.90
7934;DHT22;4012;48.896;9.192;2023-03-23T13:43:45;18.20;99.90
7934;DHT22;4012;48.896;9.192;2023-03-23T13:46:26;18.20;99.90
7934;DHT22;4012;48.896;9.192;2023-03-23T13:54:25;17.70;99.90
7934;DHT22;4012;48.896;9.192;2023-03-23T13:57:00;17.90;99.90
7934;DHT22;4012;48.896;9.192;2023-03-23T14:02:20;18.10;99.90
7934;DHT22;4012;48.896;9.192;2023-03-23T14:04:41;18.20;99.90
7934;DHT22;4012;48.896;9.192;2023-03-23T14:07:11;18.10;99.90
7934;DHT22;4012;48.896;9.192;2023-03-23T14:09:42;18.10;99.90
7934;DHT22;4012;48.896;9.192;2023-03-23T14:12:18;18.20;99.90
7934;DHT22;4012;48.896;9.192;2023-03-23T14:14:50;18.20;99.90
7934;DHT22;4012;48.896;9.192;2023-03-23T14:17:25;17.80;99.90
7934;DHT22;4012;48.896;9.192;2023-03-23T14:19:53;17.90;99.90
7934;DHT22;4012;48.896;9.192;2023-03-23T14:22:32;18.20;99.90
7934;DHT22;4012;48.896;9.192;2023-03-23T14:25:14;18.40;99.90
7934;DHT22;4012;48.896;9.192;2023-03-23T14:27:40;18.40;99.90
7934;DHT22;4012;48.896;9.192;2023-03-23T14:30:18;18.00;99.90
7934;DHT22;4012;48.896;9.192;2023-03-23T14:32:45;18.10;99.90
7934;DHT22;4012;48.896;9.192;2023-03-23T14:37:46;18.20;99.90
7934;DHT22;4012;48.896;9.192;2023-03-23T14:40:15;18.20;99.90
7934;DHT22;4012;48.896;9.192;2023-03-23T14:42:41;18.20;99.90
7934;DHT22;4012;48.896;9.192;2023-03-23T14:45:15;18.10;99.90
7934;DHT22;4012;48.896;9.192;2023-03-23T14:48:01;18.20;99.90
7934;DHT22;4012;48.896;9.192;2023-03-23T14:50:51;18.10;99.90
7934;DHT22;4012;48.896;9.192;2023-03-23T14:53:29;18.20;99.90
7934;DHT22;4012;48.896;9.192;2023-03-23T14:56:00;18.00;99.90
7934;DHT22;4012;48.896;9.192;2023-03-23T14:58:27;17.80;99.90
7934;DHT22;4012;48.896;9.192;2023-03-23T15:03:32;17.80;99.90
7934;DHT22;4012;48.896;9.192;2023-03-23T15:06:01;17.90;99.90
7934;DHT22;4012;48.896;9.192;2023-03-23T15:08:30;18.00;99.90
7934;DHT22;4012;48.896;9.192;2023-03-23T15:11:24;18.10;99.90
7934;DHT22;4012;48.896;9.192;2023-03-23T15:13:55;18.30;99.90
7934;DHT22;4012;48.896;9.192;2023-03-23T15:16:27;18.30;99.90
7934;DHT22;4012;48.896;9.192;2023-03-23T15:18:59;18.30;99.90
7934;DHT22;4012;48.896;9.192;2023-03-23T15:21:32;18.30;99.90
7934;DHT22;4012;48.896;9.192;2023-03-23T15:23:59;17.90;99.90
7934;DHT22;4012;48.896;9.192;2023-03-23T15:26:42;17.30;99.90
7934;DHT22;4012;48.896;9.192;2023-03-23T15:29:11;17.30;99.90
7934;DHT22;4012;48.896;9.192;2023-03-23T15:32:03;17.40;99.90
7934;DHT22;4012;48.896;9.192;2023-03-23T15:34:36;17.20;99.90
7934;DHT22;4012;48.896;9.192;2023-03-23T15:37:16;17.30;99.90
7934;DHT22;4012;48.896;9.192;2023-03-23T15:39:44;17.30;99.90
7934;DHT22;4012;48.896;9.192;2023-03-23T15:47:46;17.00;99.90
7934;DHT22;4012;48.896;9.192;2023-03-23T15:50:32;17.00;99.90
7934;DHT22;4012;48.896;9.192;2023-03-23T15:52:58;17.10;99.90
7934;DHT22;4012;48.896;9.192;2023-03-23T15:55:26;16.80;99.90
7934;DHT22;4012;48.896;9.192;2023-03-23T15:57:53;16.50;99.90
7934;DHT22;4012;48.896;9.192;2023-03-23T16:00:21;16.60;99.90
7934;DHT22;4012;48.896;9.192;2023-03-23T16:02:52;16.80;99.90
7934;DHT22;4012;48.896;9.192;2023-03-23T16:05:18;17.00;99.90
7934;DHT22;4012;48.896;9.192;2023-03-23T16:07:44;17.30;99.90
7934;DHT22;4012;48.896;9.192;2023-03-23T16:10:16;17.30;99.90
7934;DHT22;4012;48.896;9.192;2023-03-23T16:12:42;17.50;99.90
7934;DHT22;4012;48.896;9.192;2023-03-23T16:15:08;17.50;99.90
7934;DHT22;4012;48.896;9.192;2023-03-23T16:17:34;17.50;99.90
7934;DHT22;4012;48.896;9.192;2023-03-23T16:20:00;17.50;99.90
7934;DHT22;4012;48.896;9.192;2023-03-23T16:22:25;17.60;99.90
7934;DHT22;4012;48.896;9.192;2023-03-23T16:24:51;17.60;99.90
7934;DHT22;4012;48.896;9.192;2023-03-23T16:27:17;17.60;99.90
7934;DHT22;4012;48.896;9.192;2023-03-23T16:29:42;17.50;99.90
7934;DHT22;4012;48.896;9.192;2023-03-23T16:32:08;17.40;99.90
7934;DHT22;4012;48.896;9.192;2023-03-23T16:34:34;17.40;99.90
7934;DHT22;4012;48.896;9.192;2023-03-23T16:37:00;17.30;99.90
7934;DHT22;4012;48.896;9.192;2023-03-23T16:39:26;17.20;99.90
7934;DHT22;4012;48.896;9.192;2023-03-23T16:41:52;17.20;99.90
7934;DHT22;4012;48.896;9.192;2023-03-23T16:44:18;17.10;99.90
7934;DHT22;4012;48.896;9.192;2023-03-23T16:46:43;17.10;99.90
7934;DHT22;4012;48.896;9.192;2023-03-23T16:49:09;17.20;99.90
7934;DHT22;4012;48.896;9.192;2023-03-23T16:51:35;17.10;99.90
7934;DHT22;4012;48.896;9.192;2023-03-23T16:54:00;17.10;99.90
7934;DHT22;4012;48.896;9.192;2023-03-23T16:56:26;17.10;99.90
7934;DHT22;4012;48.896;9.192;2023-03-23T16:58:55;17.00;99.90
7934;DHT22;4012;48.896;9.192;2023-03-23T17:01:20;17.00;99.90
7934;DHT22;4012;48.896;9.192;2023-03-23T17:03:46;17.00;99.90
7934;DHT22;4012;48.896;9.192;2023-03-23T17:06:11;16.90;99.90
7934;DHT22;4012;48.896;9.192;2023-03-23T17:08:37;16.80;99.90
7934;DHT22;4012;48.896;9.192;2023-03-23T17:11:03;16.70;99.90
7934;DHT22;4012;48.896;9.192;2023-03-23T17:13:28;16.60;99.90
7934;DHT22;4012;48.896;9.192;2023-03-23T17:15:55;16.50;99.90
7934;DHT22;4012;48.896;9.192;2023-03-23T17:18:23;16.40;99.90
7934;DHT22;4012;48.896;9.192;2023-03-23T17:20:51;16.40;99.90
7934;DHT22;4012;48.896;9.192;2023-03-23T17:23:17;16.40;99.90
7934;DHT22;4012;48.896;9.192;2023-03-23T17:25:45;16.40;99.90
7934;DHT22;4012;48.896;9.192;2023-03-23T17:28:11;16.40;99.90
7934;DHT22;4012;48.896;9.192;2023-03-23T17:30:41;16.40;99.90
7934;DHT22;4012;48.896;9.192;2023-03-23T17:33:06;16.40;99.90
7934;DHT22;4012;48.896;9.192;2023-03-23T17:35:32;16.30;99.90
7934;DHT22;4012;48.896;9.192;2023-03-23T17:37:58;16.30;99.90
7934;DHT22;4012;48.896;9.192;2023-03-23T17:40:23;16.30;99.90
7934;DHT22;4012;48.896;9.192;2023-03-23T17:42:49;16.30;99.90
7934;DHT22;4012;48.896;9.192;2023-03-23T17:45:15;16.40;99.90
7934;DHT22;4012;48.896;9.192;2023-03-23T17:47:40;16.40;99.90
7934;DHT22;4012;48.896;9.192;2023-03-23T17:50:07;16.40;99.90
7934;DHT22;4012;48.896;9.192;2023-03-23T17:52:33;16.40;99.90
7934;DHT22;4012;48.896;9.192;2023-03-23T17:54:58;16.40;99.90
7934;DHT22;4012;48.896;9.192;2023-03-23T17:57:24;16.40;99.90
7934;DHT22;4012;48.896;9.192;2023-03-23T17:59:50;16.40;99.90
7934;DHT22;4012;48.896;9.192;2023-03-23T18:02:15;16.40;99.90
7934;DHT22;4012;48.896;9.192;2023-03-23T18:04:43;16.40;99.90
7934;DHT22;4012;48.896;9.192;2023-03-23T18:07:09;16.40;99.90